Time;durP1;ratioP1;P1;durP2;ratioP2;P2;SDS_P1;SDS_P2;PMS_P1;PMS_P2;Temp;Humidity;BMP_temperature;BMP_pressure;BME280_temperature;BME280_humidity;BME280_pressure;Samples;Min_cycle;Max_cycle;Signal;HPM_P1;HPM_P2
2022/10/09 00:00:31;;;;;;;8.70;4.10;;;;;;;8.15;89.32;102452.31;5257332;28;20562;-75
2022/10/09 00:03:02;;;;;;;12.37;4.30;;;;;;;7.99;89.08;102457.88;5257603;28;20039;-75
2022/10/09 00:05:34;;;;;;;11.03;4.43;;;;;;;7.91;90.62;102459.78;5257717;28;20065;-75
2022/10/09 00:08:05;;;;;;;11.33;4.47;;;;;;;8.23;89.22;102458.19;5253733;28;20021;-75
2022/10/09 00:10:42;;;;;;;11.37;4.33;;;;;;;7.94;90.23;102465.78;5248196;28;20464;-75
2022/10/09 00:13:13;;;;;;;7.43;4.07;;;;;;;7.92;90.26;102444.13;5236919;28;20092;-75
2022/10/09 00:15:45;;;;;;;8.47;3.73;;;;;;;7.94;89.65;102464.97;5253865;28;20036;-75
2022/10/09 00:18:17;;;;;;;12.10;4.03;;;;;;;7.83;90.06;102463.44;5257084;28;20071;-75
2022/10/09 00:20:49;;;;;;;9.27;3.80;;;;;;;7.75;89.75;102447.94;5246648;28;20464;-75
2022/10/09 00:23:20;;;;;;;8.20;4.57;;;;;;;7.74;92.05;102461.91;5257234;28;20121;-75
2022/10/09 00:25:57;;;;;;;8.53;4.17;;;;;;;7.82;91.59;102460.88;5257076;28;20032;-76
2022/10/09 00:28:30;;;;;;;11.37;4.67;;;;;;;7.72;92.34;102458.47;5256840;28;20029;-75
2022/10/09 00:31:04;;;;;;;15.30;5.00;;;;;;;7.93;91.10;102460.63;5256887;28;20072;-75
2022/10/09 00:33:36;;;;;;;7.80;4.03;;;;;;;8.06;90.65;102474.25;5257301;28;20033;-75
2022/10/09 00:36:13;;;;;;;10.83;5.00;;;;;;;7.77;91.42;102466.16;5257719;28;20118;-75
2022/10/09 00:38:45;;;;;;;11.50;4.93;;;;;;;7.82;92.12;102466.94;5257908;28;20025;-76
2022/10/09 00:41:26;;;;;;;10.93;4.47;;;;;;;7.69;92.81;102461.13;5257744;28;20048;-75
2022/10/09 00:44:00;;;;;;;9.20;4.50;;;;;;;7.61;93.28;102457.84;5257936;28;20159;-75
2022/10/09 00:46:45;;;;;;;8.70;4.75;;;;;;;7.74;92.94;102454.06;5255618;28;20033;-75
2022/10/09 00:49:23;;;;;;;10.50;4.50;;;;;;;7.74;93.85;102458.41;5257740;28;20403;-75
2022/10/09 00:52:05;;;;;;;10.67;5.27;;;;;;;7.63;96.97;102461.25;5256097;28;20067;-75
2022/10/09 00:54:39;;;;;;;6.87;4.33;;;;;;;7.51;97.28;102462.38;5256450;28;20142;-75
2022/10/09 00:57:10;;;;;;;;;;;;;;;7.88;91.95;102463.34;5257865;28;20464;-76
2022/10/09 00:59:42;;;;;;;13.67;4.77;;;;;;;7.47;96.11;102460.75;5257231;28;19943;-75
2022/10/09 01:02:13;;;;;;;11.43;5.23;;;;;;;7.32;97.17;102446.25;5257463;28;20104;-75
2022/10/09 01:04:44;;;;;;;10.77;5.10;;;;;;;7.43;97.72;102454.72;5257723;28;20048;-75
2022/10/09 01:07:34;;;;;;;11.90;5.03;;;;;;;7.36;100.00;102463.56;5257906;28;20036;-75
2022/10/09 01:10:43;;;;;;;8.63;4.33;;;;;;;7.35;100.00;102456.59;5256969;28;20041;-76
2022/10/09 01:13:37;;;;;;;5.87;3.63;;;;;;;7.36;100.00;102451.38;5255115;28;20045;-75
2022/10/09 01:16:17;;;;;;;7.50;4.10;;;;;;;7.21;100.00;102454.31;5235973;28;20116;-75
2022/10/09 01:19:09;;;;;;;8.53;4.63;;;;;;;7.43;99.48;102451.25;5236662;28;20151;-75
2022/10/09 01:21:51;;;;;;;7.60;4.10;;;;;;;7.59;96.94;102449.19;5238038;28;20033;-75
2022/10/09 01:24:32;;;;;;;10.37;4.27;;;;;;;7.17;100.00;102453.50;5236920;28;20060;-76
2022/10/09 01:27:26;;;;;;;8.60;4.63;;;;;;;7.56;95.55;102451.84;5237260;28;20151;-75
2022/10/09 01:30:02;;;;;;;7.40;3.67;;;;;;;7.57;94.88;102450.97;5237397;28;20418;-75
2022/10/09 01:32:36;;;;;;;10.53;4.40;;;;;;;7.49;94.62;102438.94;5237406;28;20026;-75
2022/10/09 01:35:10;;;;;;;9.98;4.20;;;;;;;7.59;93.33;102454.41;5235253;28;20116;-75
2022/10/09 01:37:44;;;;;;;8.83;4.53;;;;;;;7.49;93.22;102449.38;5235833;28;20040;-75
2022/10/09 01:40:16;;;;;;;10.15;4.00;;;;;;;7.32;94.80;102438.44;5237146;28;20284;-75
2022/10/09 01:42:48;;;;;;;8.97;4.70;;;;;;;7.16;93.51;102436.13;5237396;28;20035;-75
2022/10/09 01:45:19;;;;;;;8.57;3.90;;;;;;;7.05;96.07;102432.88;5236317;28;20447;-75
2022/10/09 01:47:50;;;;;;;10.67;5.23;;;;;;;7.02;95.90;102429.44;5237511;28;20342;-75
2022/10/09 01:50:28;;;;;;;11.80;4.63;;;;;;;7.18;95.96;102433.50;5236950;28;20502;-76
2022/10/09 01:53:02;;;;;;;12.93;5.03;;;;;;;6.85;98.41;102427.16;5238125;28;20095;-75
2022/10/09 01:55:40;;;;;;;;;;;;;;;7.30;93.92;102437.59;5238117;28;20029;-75
2022/10/09 01:58:20;;;;;;;8.50;3.83;;;;;;;6.90;99.80;102427.06;5237662;28;20702;-75
2022/10/09 02:00:55;;;;;;;10.43;4.07;;;;;;;7.02;97.10;102428.56;5236745;28;20040;-76
2022/10/09 02:03:29;;;;;;;11.77;5.57;;;;;;;6.72;98.87;102408.28;5237687;28;20032;-75
2022/10/09 02:06:04;;;;;;;8.87;4.17;;;;;;;6.75;99.09;102417.81;5238859;28;20033;-75
2022/10/09 02:08:38;;;;;;;11.37;4.03;;;;;;;6.71;98.55;102418.75;5239048;28;20033;-75
2022/10/09 02:11:10;;;;;;;6.17;3.27;;;;;;;6.69;98.00;102408.34;5246532;28;20049;-75
2022/10/09 02:13:43;;;;;;;13.00;4.87;;;;;;;6.52;100.00;102401.72;5238175;28;20415;-75
2022/10/09 02:16:37;;;;;;;7.30;4.00;;;;;;;6.74;100.00;102409.13;5236136;28;20037;-75
2022/10/09 02:19:34;;;;;;;16.17;5.20;;;;;;;6.85;100.00;102408.06;5237532;28;20063;-75
2022/10/09 02:22:16;;;;;;;6.60;4.33;;;;;;;6.64;100.00;102399.75;5246390;28;20036;-75
2022/10/09 02:24:47;;;;;;;9.07;4.90;;;;;;;6.58;100.00;102412.91;5244476;28;20029;-75
2022/10/09 02:27:20;;;;;;;8.10;4.13;;;;;;;6.62;100.00;102404.13;5262366;28;20558;-76
2022/10/09 02:29:52;;;;;;;9.13;4.90;;;;;;;6.49;100.00;102393.94;5260613;28;20032;-76
2022/10/09 02:32:23;;;;;;;8.30;4.37;;;;;;;6.50;100.00;102393.06;5262560;28;20025;-76
2022/10/09 02:34:55;;;;;;;11.27;5.30;;;;;;;6.57;100.00;102395.56;5255437;28;20059;-75
2022/10/09 02:37:26;;;;;;;9.07;5.43;;;;;;;6.54;100.00;102397.31;5241527;28;20087;-75
2022/10/09 02:39:57;;;;;;;8.40;5.00;;;;;;;6.50;100.00;102398.28;5245948;28;20017;-75
2022/10/09 02:42:29;;;;;;;9.17;4.50;;;;;;;6.50;100.00;102400.00;5262302;28;20124;-75
2022/10/09 02:45:00;;;;;;;7.07;4.93;;;;;;;6.52;100.00;102399.13;5260819;28;20028;-75
2022/10/09 02:47:31;;;;;;;10.47;5.00;;;;;;;6.60;100.00;102396.34;5262351;28;20120;-75
2022/10/09 02:50:03;;;;;;;8.50;5.10;;;;;;;6.47;100.00;102390.53;5261658;28;20104;-75
2022/10/09 02:52:34;;;;;;;7.40;4.70;;;;;;;6.43;100.00;102399.25;5241948;28;20030;-75
2022/10/09 02:55:06;;;;;;;10.43;5.03;;;;;;;6.29;100.00;102386.47;5240815;28;20044;-75
2022/10/09 02:57:37;;;;;;;13.93;5.10;;;;;;;6.39;100.00;102388.03;5251987;28;20032;-76
2022/10/09 03:00:09;;;;;;;17.83;6.17;;;;;;;6.45;100.00;102389.69;5261917;28;20113;-75
2022/10/09 03:02:40;;;;;;;7.07;4.80;;;;;;;6.45;100.00;102386.22;5254143;28;20013;-75
2022/10/09 03:05:11;;;;;;;11.23;6.00;;;;;;;6.49;100.00;102391.34;5261234;28;20029;-75
2022/10/09 03:07:49;;;;;;;10.53;5.63;;;;;;;6.43;100.00;102386.25;5261902;28;20108;-75
2022/10/09 03:10:21;;;;;;;11.43;5.40;;;;;;;6.33;100.00;102375.16;5252713;28;20065;-75
2022/10/09 03:12:52;;;;;;;12.23;6.30;;;;;;;6.28;100.00;102370.00;5239880;28;20038;-75
2022/10/09 03:15:24;;;;;;;10.47;6.13;;;;;;;6.40;100.00;102381.09;5239670;28;20038;-75
2022/10/09 03:17:55;;;;;;;12.93;5.57;;;;;;;6.34;100.00;102368.19;5258857;28;20025;-75
2022/10/09 03:20:28;;;;;;;13.57;6.13;;;;;;;6.37;100.00;102383.75;5261224;28;20660;-75
2022/10/09 03:22:59;;;;;;;11.80;6.30;;;;;;;6.34;100.00;102383.78;5261242;28;20494;-76
2022/10/09 03:25:31;;;;;;;12.87;5.83;;;;;;;6.21;100.00;102360.59;5257513;28;20022;-76
2022/10/09 03:28:03;;;;;;;11.70;5.50;;;;;;;6.33;100.00;102376.88;5263397;28;20024;-76
2022/10/09 03:30:34;;;;;;;12.20;5.67;;;;;;;6.18;100.00;102358.03;5260779;28;20021;-75
2022/10/09 03:33:05;;;;;;;10.77;5.67;;;;;;;6.11;100.00;102377.25;5259928;28;20064;-75
2022/10/09 03:35:36;;;;;;;11.83;6.40;;;;;;;6.15;100.00;102384.97;5260949;28;20043;-75
2022/10/09 03:38:08;;;;;;;12.17;5.63;;;;;;;6.18;100.00;102378.84;5260885;28;20035;-75
2022/10/09 03:40:39;;;;;;;12.20;5.83;;;;;;;6.22;100.00;102375.31;5259464;28;20036;-75
2022/10/09 03:43:10;;;;;;;13.00;5.60;;;;;;;6.17;100.00;102362.41;5261073;28;20289;-75
2022/10/09 03:45:42;;;;;;;12.93;6.30;;;;;;;6.19;100.00;102375.38;5264277;28;20522;-75
2022/10/09 03:48:14;;;;;;;12.03;5.70;;;;;;;6.17;100.00;102377.13;5264206;28;20056;-76
2022/10/09 03:50:45;;;;;;;13.33;5.73;;;;;;;6.21;100.00;102363.22;5259153;28;20037;-75
2022/10/09 03:53:17;;;;;;;13.27;6.07;;;;;;;6.19;100.00;102374.50;5260050;28;20021;-76
2022/10/09 03:55:48;;;;;;;19.03;7.03;;;;;;;6.20;100.00;102365.81;5258860;28;20044;-75
2022/10/09 03:58:19;;;;;;;14.13;6.10;;;;;;;6.16;100.00;102371.06;5260201;28;20029;-75
2022/10/09 04:00:51;;;;;;;12.43;5.33;;;;;;;6.07;100.00;102370.38;5259049;28;20037;-75
2022/10/09 04:03:23;;;;;;;8.17;4.50;;;;;;;6.29;100.00;102382.16;5260117;28;20032;-75
2022/10/09 04:05:54;;;;;;;11.23;4.83;;;;;;;6.09;100.00;102373.81;5260247;28;20510;-75
2022/10/09 04:08:26;;;;;;;9.97;4.77;;;;;;;6.00;100.00;102390.38;5260245;28;20043;-74
2022/10/09 04:10:58;;;;;;;13.50;5.93;;;;;;;5.88;100.00;102386.25;5259878;28;20064;-74
2022/10/09 04:13:29;;;;;;;12.57;5.50;;;;;;;5.99;100.00;102384.31;5260414;28;20099;-74
2022/10/09 04:16:01;;;;;;;9.47;6.07;;;;;;;6.02;100.00;102386.88;5258638;28;20040;-74
2022/10/09 04:18:32;;;;;;;14.30;6.03;;;;;;;5.98;100.00;102382.63;5249074;28;20033;-74
2022/10/09 04:21:03;;;;;;;11.83;5.50;;;;;;;5.98;100.00;102382.63;5238837;28;20041;-75
2022/10/09 04:23:34;;;;;;;13.83;5.67;;;;;;;5.84;100.00;102375.03;5239204;28;20030;-75
2022/10/09 04:26:06;;;;;;;11.47;5.20;;;;;;;6.07;100.00;102380.78;5238763;28;20025;-74
2022/10/09 04:28:37;;;;;;;9.77;5.23;;;;;;;5.84;100.00;102379.34;5238993;28;20044;-74
2022/10/09 04:31:09;;;;;;;9.13;4.43;;;;;;;5.84;100.00;102375.03;5237338;28;20021;-75
2022/10/09 04:33:40;;;;;;;10.43;5.27;;;;;;;5.87;100.00;102366.28;5238620;28;20032;-74
2022/10/09 04:36:11;;;;;;;9.70;5.10;;;;;;;5.83;100.00;102373.28;5238319;28;20480;-75
2022/10/09 04:38:43;;;;;;;10.80;5.57;;;;;;;5.71;100.00;102382.13;5236822;28;20546;-75
2022/10/09 04:41:14;;;;;;;14.90;5.60;;;;;;;5.76;100.00;102372.53;5238021;28;20076;-75
2022/10/09 04:43:45;;;;;;;8.00;4.83;;;;;;;5.73;100.00;102362.16;5236242;28;20014;-75
2022/10/09 04:46:16;;;;;;;9.90;4.90;;;;;;;5.65;100.00;102371.84;5250607;28;20043;-75
2022/10/09 04:48:48;;;;;;;8.50;4.33;;;;;;;5.61;100.00;102359.75;5246705;28;20054;-74
2022/10/09 04:51:20;;;;;;;12.63;5.10;;;;;;;5.67;100.00;102360.50;5236303;28;20079;-75
2022/10/09 04:53:51;;;;;;;10.57;4.33;;;;;;;5.69;100.00;102360.50;5237841;28;20061;-76
2022/10/09 04:56:23;;;;;;;8.53;4.20;;;;;;;5.53;100.00;102363.31;5252281;28;20036;-75
2022/10/09 04:58:54;;;;;;;7.53;4.53;;;;;;;5.61;100.00;102359.75;5258528;28;20028;-75
2022/10/09 05:01:27;;;;;;;12.97;4.90;;;;;;;5.58;100.00;102360.66;5240452;28;20451;-74
2022/10/09 05:03:58;;;;;;;9.17;5.23;;;;;;;5.55;100.00;102351.16;5237809;28;20419;-75
2022/10/09 05:06:29;;;;;;;11.13;4.97;;;;;;;5.57;100.00;102354.59;5238030;28;20018;-75
2022/10/09 05:09:00;;;;;;;10.03;5.43;;;;;;;5.64;100.00;102357.09;5239638;28;20079;-75
2022/10/09 05:11:32;;;;;;;12.80;6.10;;;;;;;5.58;100.00;102355.47;5258442;28;20102;-75
2022/10/09 05:14:03;;;;;;;8.90;4.77;;;;;;;5.52;100.00;102347.75;5257814;28;20119;-74
2022/10/09 05:16:35;;;;;;;9.10;5.33;;;;;;;5.55;100.00;102338.16;5258519;28;20082;-75
2022/10/09 05:19:06;;;;;;;12.47;5.83;;;;;;;5.36;100.00;102347.13;5255712;28;20104;-75
2022/10/09 05:21:37;;;;;;;9.83;4.37;;;;;;;5.36;100.00;102352.31;5237356;28;20482;-75
2022/10/09 05:24:09;;;;;;;9.93;5.17;;;;;;;5.37;100.00;102351.41;5247994;28;20392;-76
2022/10/09 05:26:40;;;;;;;8.90;4.80;;;;;;;5.40;100.00;102340.97;5258180;28;20043;-75
2022/10/09 05:29:11;;;;;;;8.63;4.57;;;;;;;5.27;100.00;102330.75;5257044;28;20063;-75
2022/10/09 05:31:42;;;;;;;7.90;4.70;;;;;;;5.43;100.00;102343.53;5258621;28;20069;-74
2022/10/09 05:34:14;;;;;;;11.90;5.00;;;;;;;5.39;100.00;102337.53;5257032;28;20058;-75
2022/10/09 05:36:45;;;;;;;9.67;5.67;;;;;;;5.30;100.00;102340.25;5241732;28;20498;-75
2022/10/09 05:39:17;;;;;;;9.53;4.67;;;;;;;5.19;100.00;102340.38;5237394;28;20033;-74
2022/10/09 05:41:48;;;;;;;10.47;5.17;;;;;;;5.27;100.00;102343.72;5237682;28;20034;-75
2022/10/09 05:44:19;;;;;;;10.03;4.80;;;;;;;5.24;100.00;102340.31;5235635;28;20092;-74
2022/10/09 05:46:50;;;;;;;13.80;6.60;;;;;;;5.22;100.00;102327.34;5237484;28;20047;-75
2022/10/09 05:49:22;;;;;;;13.07;5.13;;;;;;;5.18;100.00;102334.31;5236771;28;20412;-75
2022/10/09 05:51:54;;;;;;;9.17;5.37;;;;;;;5.14;100.00;102339.59;5256286;28;20025;-75
2022/10/09 05:54:26;;;;;;;11.53;5.97;;;;;;;5.19;100.00;102335.19;5258579;28;20021;-75
2022/10/09 05:56:57;;;;;;;13.30;5.70;;;;;;;5.23;100.00;102331.69;5245722;28;20411;-75
2022/10/09 05:59:29;;;;;;;11.10;5.37;;;;;;;5.22;100.00;102340.34;5261663;28;20039;-74
2022/10/09 06:02:00;;;;;;;11.17;5.40;;;;;;;5.19;100.00;102341.25;5257601;28;20025;-74
2022/10/09 06:04:31;;;;;;;11.50;6.00;;;;;;;5.10;100.00;102337.94;5240018;28;20026;-74
2022/10/09 06:07:02;;;;;;;13.57;7.37;;;;;;;5.14;100.00;102326.59;5245840;28;20036;-74
2022/10/09 06:09:34;;;;;;;17.57;7.23;;;;;;;5.13;100.00;102332.69;5241132;28;20033;-74
2022/10/09 06:12:05;;;;;;;16.07;8.47;;;;;;;5.05;100.00;102338.84;5244406;28;20045;-74
2022/10/09 06:14:36;;;;;;;16.60;9.37;;;;;;;5.16;100.00;102335.25;5239657;28;20029;-75
2022/10/09 06:17:08;;;;;;;20.77;9.03;;;;;;;5.13;100.00;102341.31;5242665;28;20392;-74
2022/10/09 06:19:39;;;;;;;23.43;11.93;;;;;;;5.13;100.00;102340.47;5250716;28;20483;-75
2022/10/09 06:22:10;;;;;;;23.90;12.10;;;;;;;5.11;100.00;102340.50;5260059;28;20939;-75
2022/10/09 06:24:41;;;;;;;21.07;11.47;;;;;;;5.25;100.00;102348.13;5258529;28;20441;-74
2022/10/09 06:27:13;;;;;;;32.03;18.17;;;;;;;5.25;100.00;102342.91;5241039;28;20036;-75
2022/10/09 06:29:44;;;;;;;34.43;16.50;;;;;;;5.09;100.00;102334.47;5239668;28;20025;-74
2022/10/09 06:32:15;;;;;;;26.23;14.80;;;;;;;5.07;100.00;102331.88;5240499;28;20333;-74
2022/10/09 06:34:46;;;;;;;19.83;9.97;;;;;;;5.19;100.00;102348.19;5247996;28;20049;-75
2022/10/09 06:37:18;;;;;;;19.77;8.80;;;;;;;5.20;100.00;102352.50;5242696;28;20030;-74
2022/10/09 06:39:49;;;;;;;20.67;9.00;;;;;;;5.21;100.00;102349.03;5245077;28;20021;-75
2022/10/09 06:42:20;;;;;;;13.33;8.80;;;;;;;5.25;100.00;102347.25;5260711;28;20070;-74
2022/10/09 06:44:52;;;;;;;11.30;6.93;;;;;;;5.30;100.00;102350.66;5259586;28;20387;-75
2022/10/09 06:47:23;;;;;;;34.67;14.30;;;;;;;5.37;100.00;102338.44;5260027;28;20033;-74
2022/10/09 06:49:54;;;;;;;23.93;10.53;;;;;;;5.52;100.00;102355.53;5253870;28;20052;-74
2022/10/09 06:52:25;;;;;;;36.77;17.60;;;;;;;5.40;100.00;102339.25;5260051;28;20048;-74
2022/10/09 06:54:57;;;;;;;19.10;11.43;;;;;;;5.56;100.00;102350.28;5260190;28;20021;-74
2022/10/09 06:57:28;;;;;;;13.40;7.50;;;;;;;5.63;100.00;102350.19;5245919;28;20029;-74
2022/10/09 06:59:59;;;;;;;11.03;7.03;;;;;;;5.63;100.00;102339.78;5258273;28;20057;-74
2022/10/09 07:02:31;;;;;;;10.03;6.47;;;;;;;5.69;100.00;102339.69;5260504;28;20090;-74
2022/10/09 07:05:02;;;;;;;12.30;6.80;;;;;;;5.76;100.00;102338.72;5259376;28;20426;-74
2022/10/09 07:07:38;;;;;;;10.77;5.57;;;;;;;5.88;100.00;102349.84;5260297;28;20090;-74
2022/10/09 07:10:09;;;;;;;12.83;6.13;;;;;;;5.95;100.00;102348.84;5239849;28;20041;-75
2022/10/09 07:12:41;;;;;;;13.93;6.40;;;;;;;6.05;100.00;102337.44;5242040;28;20492;-74
2022/10/09 07:15:12;;;;;;;16.17;7.77;;;;;;;5.98;100.00;102346.19;5258610;28;20108;-74
2022/10/09 07:17:44;;;;;;;12.23;6.27;;;;;;;6.08;100.00;102333.06;5260183;28;20545;-74
2022/10/09 07:20:15;;;;;;;13.53;6.50;;;;;;;6.21;100.00;102342.41;5259882;28;20079;-75
2022/10/09 07:22:46;;;;;;;12.50;6.73;;;;;;;6.28;100.00;102341.38;5248405;28;20048;-74
2022/10/09 07:25:18;;;;;;;12.90;7.77;;;;;;;6.41;100.00;102339.44;5260302;28;20059;-74
2022/10/09 07:27:49;;;;;;;12.67;6.63;;;;;;;6.50;100.00;102354.03;5257631;28;20041;-73
2022/10/09 07:30:20;;;;;;;16.50;7.40;;;;;;;6.57;100.00;102343.50;5247199;28;20116;-75
2022/10/09 07:32:51;;;;;;;14.50;7.27;;;;;;;6.68;100.00;102336.34;5239552;28;20033;-75
2022/10/09 07:35:23;;;;;;;11.23;7.03;;;;;;;6.84;100.00;102342.09;5258526;28;20032;-74
2022/10/09 07:37:54;;;;;;;18.27;7.90;;;;;;;6.99;100.00;102345.28;5258078;28;20052;-74
2022/10/09 07:40:25;;;;;;;14.37;6.63;;;;;;;7.07;100.00;102334.72;5250903;28;20075;-74
2022/10/09 07:42:56;;;;;;;14.40;8.07;;;;;;;7.28;100.00;102340.38;5259543;28;20031;-74
2022/10/09 07:45:28;;;;;;;14.33;8.43;;;;;;;7.46;100.00;102339.09;5243667;28;20033;-74
2022/10/09 07:47:59;;;;;;;14.50;7.80;;;;;;;7.57;100.00;102342.31;5240600;28;20055;-74
2022/10/09 07:50:31;;;;;;;14.23;8.17;;;;;;;7.57;100.00;102320.59;5239357;28;20021;-74
2022/10/09 07:53:02;;;;;;;10.03;8.17;;;;;;;7.73;100.00;102334.13;5257083;28;20040;-74
2022/10/09 07:55:35;;;;;;;12.83;8.70;;;;;;;7.89;100.00;102326.78;5245044;28;20049;-74
2022/10/09 07:58:06;;;;;;;12.57;8.30;;;;;;;8.06;100.00;102334.22;5238085;28;20101;-74
2022/10/09 08:00:37;;;;;;;15.20;8.90;;;;;;;8.29;100.00;102324.06;5244114;28;20124;-73
2022/10/09 08:03:09;;;;;;;11.20;7.13;;;;;;;8.56;100.00;102330.34;5257275;28;20024;-74
2022/10/09 08:05:40;;;;;;;13.23;7.87;;;;;;;8.92;100.00;102333.72;5240209;28;20025;-74
2022/10/09 08:08:11;;;;;;;12.37;6.80;;;;;;;9.48;100.00;102321.59;5237507;28;20485;-74
2022/10/09 08:10:43;;;;;;;10.70;7.17;;;;;;;10.37;100.00;102317.81;5245748;28;20376;-74
2022/10/09 08:13:14;;;;;;;11.97;7.13;;;;;;;11.46;100.00;102305.94;5257386;28;20029;-73
2022/10/09 08:15:45;;;;;;;11.53;6.83;;;;;;;12.32;100.00;102306.81;5257424;28;20021;-74
2022/10/09 08:18:17;;;;;;;11.40;6.53;;;;;;;13.20;94.60;102316.88;5240463;28;20068;-74
2022/10/09 08:21:05;;;;;;;9.50;6.13;;;;;;;14.23;92.20;102314.50;5241177;28;20025;-74
2022/10/09 08:23:36;;;;;;;11.67;5.17;;;;;;;14.79;83.61;102318.63;5257481;28;20119;-74
2022/10/09 08:26:28;;;;;;;16.53;6.53;;;;;;;15.58;77.50;102317.84;5257398;28;20021;-74
2022/10/09 08:29:01;;;;;;;9.73;5.57;;;;;;;15.93;74.91;102309.66;5254088;28;20459;-74
2022/10/09 08:31:33;;;;;;;16.05;4.65;;;;;;;15.75;74.05;102310.72;5257810;28;20032;-74
2022/10/09 08:34:04;;;;;;;10.70;5.13;;;;;;;14.73;73.75;102314.53;5257817;28;20029;-74
2022/10/09 08:36:35;;;;;;;10.20;5.60;;;;;;;14.13;77.29;102289.56;5257586;28;20388;-74
2022/10/09 08:39:07;;;;;;;16.03;5.63;;;;;;;14.43;77.84;102309.13;5257420;28;20029;-74
2022/10/09 08:41:43;;;;;;;11.60;5.20;;;;;;;15.76;70.49;102296.59;5254796;28;20029;-74
2022/10/09 08:44:33;;;;;;;10.40;5.43;;;;;;;17.54;63.30;102297.09;5255980;28;20032;-74
2022/10/09 08:47:16;;;;;;;11.67;5.30;;;;;;;18.36;55.78;102292.50;5251757;28;20032;-74
2022/10/09 08:49:54;;;;;;;14.73;5.23;;;;;;;18.66;52.45;102297.56;5235830;28;20092;-75
2022/10/09 08:52:46;;;;;;;9.90;5.30;;;;;;;19.52;53.62;102291.38;5236267;28;20092;-75
2022/10/09 08:55:31;;;;;;;10.30;4.70;;;;;;;19.83;51.10;102281.91;5250694;28;20037;-75
2022/10/09 08:58:05;;;;;;;10.02;4.28;;;;;;;20.06;46.87;102276.66;5250562;28;20043;-69
2022/10/09 09:00:41;;;;;;;;;;;;;;;22.16;50.84;102283.69;5261369;28;20039;-70
2022/10/09 09:03:25;;;;;;;10.32;4.88;;;;;;;22.18;45.17;102276.41;5256258;28;20397;-70
2022/10/09 09:06:04;;;;;;;7.75;3.95;;;;;;;21.95;39.35;102283.72;5247472;28;20037;-69
2022/10/09 09:08:52;;;;;;;6.82;3.40;;;;;;;22.41;41.57;102273.50;5245699;28;20029;-68
2022/10/09 09:11:26;;;;;;;9.18;4.72;;;;;;;21.37;40.33;102280.50;5259781;28;20495;-69
2022/10/09 09:14:16;;;;;;;11.80;5.05;;;;;;;22.15;38.90;102265.97;5242999;28;20472;-70
2022/10/09 09:16:57;;;;;;;12.15;3.90;;;;;;;23.79;37.24;102261.19;5249317;28;20037;-70
2022/10/09 09:19:48;;;;;;;10.18;2.97;;;;;;;24.35;37.12;102265.78;5241919;28;20027;-70
2022/10/09 09:22:22;;;;;;;6.85;3.55;;;;;;;24.24;34.91;102259.63;5244444;28;20068;-70
2022/10/09 09:24:56;;;;;;;9.77;3.17;;;;;;;25.17;33.50;102254.19;5244345;28;20400;-69
2022/10/09 09:27:35;;;;;;;10.50;3.40;;;;;;;24.95;33.90;102256.38;5247070;28;20040;-70
2022/10/09 09:30:30;;;;;;;9.63;4.28;;;;;;;24.29;34.41;102246.66;5240075;28;20533;-67
2022/10/09 09:33:24;;;;;;;;;;;;;;;27.84;35.42;102244.13;5243811;28;20045;-68
2022/10/09 09:36:07;;;;;;;7.85;3.47;;;;;;;26.42;32.13;102246.00;5254629;28;19974;-68
2022/10/09 09:38:39;;;;;;;7.93;3.70;;;;;;;24.30;32.35;102236.75;5253516;28;20095;-70
2022/10/09 09:41:10;;;;;;;6.72;3.30;;;;;;;24.56;32.91;102224.50;5260527;28;20575;-69
2022/10/09 09:43:41;;;;;;;6.50;3.63;;;;;;;24.36;32.06;102222.78;5242798;28;20059;-68
2022/10/09 09:46:16;;;;;;;7.18;3.33;;;;;;;25.27;32.13;102229.13;5244030;28;20472;-71
2022/10/09 09:48:48;;;;;;;7.47;3.08;;;;;;;24.69;33.08;102214.25;5252182;28;20047;-69
2022/10/09 09:51:26;;;;;;;8.68;4.18;;;;;;;24.23;33.26;102203.56;5251211;28;20416;-70
2022/10/09 09:54:06;;;;;;;8.05;3.47;;;;;;;23.90;35.58;102204.81;5245576;28;20025;-68
2022/10/09 09:56:42;;;;;;;9.73;3.20;;;;;;;25.94;32.41;102203.53;5248664;28;20052;-72
2022/10/09 09:59:26;;;;;;;10.73;3.97;;;;;;;24.38;34.74;102207.41;5263766;28;20143;-67
2022/10/09 10:02:16;;;;;;;8.63;4.15;;;;;;;23.80;34.85;102201.34;5261585;28;20052;-68
2022/10/09 10:04:54;;;;;;;9.55;3.50;;;;;;;21.84;37.50;102197.50;5258856;28;20499;-69
2022/10/09 10:07:36;;;;;;;7.88;3.00;;;;;;;22.12;36.94;102202.22;5257124;28;20025;-71
2022/10/09 10:10:24;;;;;;;11.85;4.18;;;;;;;22.46;36.94;102191.19;5248844;28;20025;-68
2022/10/09 10:12:58;;;;;;;7.32;3.42;;;;;;;21.02;39.00;102191.91;5252624;28;20682;-67
2022/10/09 10:15:32;;;;;;;12.20;4.43;;;;;;;20.25;40.27;102190.06;5252752;28;20558;-69
2022/10/09 10:18:06;;;;;;;13.18;3.65;;;;;;;19.63;42.30;102190.44;5244413;28;20029;-71
2022/10/09 10:20:42;;;;;;;11.80;3.85;;;;;;;18.96;43.24;102187.44;5245211;28;20086;-68
2022/10/09 10:23:21;;;;;;;14.02;3.42;;;;;;;19.64;42.74;102180.63;5251878;28;20078;-71
2022/10/09 10:25:55;;;;;;;8.93;3.83;;;;;;;20.16;41.43;102170.38;5268205;28;20029;-70
2022/10/09 10:28:34;;;;;;;11.20;3.83;;;;;;;19.81;42.50;102177.50;5261005;28;20031;-70
2022/10/09 10:31:14;;;;;;;7.82;3.80;;;;;;;19.46;43.03;102171.31;5248494;28;20183;-70
2022/10/09 10:33:51;;;;;;;11.73;3.80;;;;;;;19.15;43.00;102163.03;5243914;28;20100;-70
2022/10/09 10:36:26;;;;;;;14.03;3.77;;;;;;;19.03;43.90;102170.09;5265472;28;20055;-70
2022/10/09 10:39:11;;;;;;;8.73;3.60;;;;;;;18.77;44.47;102162.28;5263218;28;20348;-70
2022/10/09 10:41:48;;;;;;;7.43;3.00;;;;;;;18.60;44.88;102153.78;5265025;28;20066;-71
2022/10/09 10:44:32;;;;;;;8.77;3.00;;;;;;;18.43;44.41;102148.84;5272262;28;20263;-69
2022/10/09 10:47:11;;;;;;;9.93;3.80;;;;;;;18.60;45.19;102148.47;5267654;28;20100;-70
2022/10/09 10:49:43;;;;;;;7.20;3.57;;;;;;;18.72;45.68;102143.19;5267281;28;20121;-72
2022/10/09 10:52:42;;;;;;;8.03;3.47;;;;;;;18.97;44.55;102141.38;5249281;28;20120;-71
2022/10/09 10:55:24;;;;;;;10.20;3.87;;;;;;;18.41;45.38;102138.38;5256605;28;20036;-70
2022/10/09 10:58:11;;;;;;;8.10;3.33;;;;;;;19.06;44.03;102130.03;5246359;28;20036;-70
2022/10/09 11:00:52;;;;;;;9.53;3.40;;;;;;;18.96;44.55;102121.06;5248955;28;20507;-69
2022/10/09 11:03:39;;;;;;;7.13;2.83;;;;;;;18.65;44.77;102120.72;5249858;28;20349;-69
2022/10/09 11:06:18;;;;;;;5.70;2.53;;;;;;;18.61;44.39;102131.56;5245690;28;20064;-69
2022/10/09 11:09:27;;;;;;;7.67;2.80;;;;;;;18.88;44.42;102128.78;5255625;28;20029;-69
2022/10/09 11:12:14;;;;;;;10.87;3.67;;;;;;;18.74;44.74;102120.91;5256962;28;20052;-68
2022/10/09 11:15:15;;;;;;;5.67;2.90;;;;;;;18.84;43.43;102110.44;5246985;28;20106;-69
2022/10/09 11:18:05;;;;;;;10.40;3.47;;;;;;;18.85;44.58;102106.81;5242535;28;20531;-70
2022/10/09 11:20:58;;;;;;;9.17;3.30;;;;;;;18.88;44.47;102102.25;5244898;28;20029;-69
2022/10/09 11:24:03;;;;;;;14.77;4.73;;;;;;;18.81;45.00;102104.50;5255743;28;20037;-71
2022/10/09 11:26:52;;;;;;;11.32;2.95;;;;;;;18.89;44.66;102096.81;5256465;28;20028;-70
2022/10/09 11:29:33;;;;;;;8.00;2.60;;;;;;;18.68;45.34;102089.50;5257244;28;20029;-70
2022/10/09 11:32:13;;;;;;;9.67;2.93;;;;;;;18.79;45.20;102095.81;5256163;28;20110;-71
2022/10/09 11:34:51;;;;;;;7.93;2.87;;;;;;;18.69;44.62;102093.88;5242977;28;20025;-70
2022/10/09 11:37:27;;;;;;;6.67;2.80;;;;;;;18.83;44.79;102082.19;5239999;28;20392;-70
2022/10/09 11:39:58;;;;;;;7.33;3.20;;;;;;;18.54;44.82;102082.59;5252876;28;20025;-71
2022/10/09 11:42:30;;;;;;;7.40;3.10;;;;;;;18.51;46.08;102074.88;5249194;28;20036;-70
2022/10/09 11:45:33;;;;;;;7.07;3.20;;;;;;;18.51;45.34;102077.50;5258073;28;20055;-70
2022/10/09 11:48:05;;;;;;;7.57;3.30;;;;;;;18.87;44.20;102069.53;5253705;28;20064;-70
2022/10/09 11:51:13;;;;;;;7.27;2.40;;;;;;;18.95;44.06;102063.66;5249002;28;20029;-70
2022/10/09 11:53:46;;;;;;;7.93;2.50;;;;;;;18.77;44.84;102058.78;5255775;28;20045;-70
2022/10/09 11:56:28;;;;;;;7.80;2.70;;;;;;;18.89;43.68;102053.50;5234964;28;20643;-68
2022/10/09 11:59:02;;;;;;;9.50;2.90;;;;;;;19.04;43.51;102047.00;5245240;28;20036;-70